createdAt,value
2023-03-01T00:00:43.785Z,-1.33
2023-03-01T00:01:43.798Z,-1.32
2023-03-01T00:02:43.861Z,-1.32
2023-03-01T00:03:43.818Z,-1.32
2023-03-01T00:04:43.747Z,-1.33
2023-03-01T00:05:43.726Z,-1.30
2023-03-01T00:06:43.719Z,-1.32
2023-03-01T00:07:43.712Z,-1.32
2023-03-01T00:08:43.685Z,-1.33
2023-03-01T00:09:43.711Z,-1.32
2023-03-01T00:10:43.720Z,-1.32
2023-03-01T00:11:43.683Z,-1.33
2023-03-01T00:12:43.666Z,-1.32
2023-03-01T00:13:43.648Z,-1.33
2023-03-01T00:14:43.635Z,-1.33
2023-03-01T00:15:43.632Z,-1.37
2023-03-01T00:16:43.642Z,-1.37
2023-03-01T00:17:43.615Z,-1.40
2023-03-01T00:18:43.579Z,-1.40
2023-03-01T00:19:43.598Z,-1.40
2023-03-01T00:20:43.568Z,-1.41
2023-03-01T00:21:43.564Z,-1.44
2023-03-01T00:22:43.549Z,-1.46
2023-03-01T00:23:43.577Z,-1.46
2023-03-01T00:24:43.520Z,-1.47
2023-03-01T00:25:43.512Z,-1.48
2023-03-01T00:26:43.617Z,-1.50
2023-03-01T00:27:43.498Z,-1.50
2023-03-01T00:28:43.476Z,-1.50
2023-03-01T00:29:43.500Z,-1.51
2023-03-01T00:30:43.512Z,-1.51
2023-03-01T00:31:43.451Z,-1.51
2023-03-01T00:32:43.720Z,-1.53
2023-03-01T00:33:43.466Z,-1.54
2023-03-01T00:34:43.430Z,-1.54
2023-03-01T00:35:43.465Z,-1.56
2023-03-01T00:36:43.469Z,-1.56
2023-03-01T00:37:43.501Z,-1.59
2023-03-01T00:38:43.500Z,-1.59
2023-03-01T00:39:43.496Z,-1.59
2023-03-01T00:40:43.480Z,-1.61
2023-03-01T00:41:43.658Z,-1.59
2023-03-01T00:42:43.500Z,-1.59
2023-03-01T00:43:43.596Z,-1.61
2023-03-01T00:44:43.503Z,-1.61
2023-03-01T00:45:43.549Z,-1.59
2023-03-01T00:46:43.541Z,-1.62
2023-03-01T00:47:43.669Z,-1.61
2023-03-01T00:48:43.324Z,-1.62
2023-03-01T00:49:43.371Z,-1.62
2023-03-01T00:50:43.241Z,-1.65
2023-03-01T00:51:43.227Z,-1.66
2023-03-01T00:52:43.220Z,-1.68
2023-03-01T00:53:43.224Z,-1.66
2023-03-01T00:54:43.220Z,-1.71
2023-03-01T00:55:43.200Z,-1.71
2023-03-01T00:56:43.178Z,-1.69
2023-03-01T00:57:43.178Z,-1.71
2023-03-01T00:58:43.160Z,-1.69
2023-03-01T00:59:43.701Z,-1.72
2023-03-01T01:00:43.139Z,-1.71
2023-03-01T01:01:43.160Z,-1.72
2023-03-01T01:02:43.167Z,-1.72
2023-03-01T01:03:43.101Z,-1.72
2023-03-01T01:04:43.088Z,-1.74
2023-03-01T01:05:43.110Z,-1.74
2023-03-01T01:06:43.088Z,-1.72
2023-03-01T01:07:43.062Z,-1.72
2023-03-01T01:08:43.044Z,-1.74
2023-03-01T01:09:43.566Z,-1.72
2023-03-01T01:10:43.036Z,-1.71
2023-03-01T01:11:43.045Z,-1.72
2023-03-01T01:12:42.996Z,-1.71
2023-03-01T01:13:42.995Z,-1.72
2023-03-01T01:14:42.984Z,-1.74
2023-03-01T01:15:43.045Z,-1.72
2023-03-01T01:16:42.983Z,-1.74
2023-03-01T01:17:42.961Z,-1.74
2023-03-01T01:18:42.939Z,-1.76
2023-03-01T01:19:42.934Z,-1.76
2023-03-01T01:20:42.907Z,-1.77
2023-03-01T01:21:42.929Z,-1.76
2023-03-01T01:22:42.894Z,-1.76
2023-03-01T01:23:42.885Z,-1.76
2023-03-01T01:24:42.864Z,-1.76
2023-03-01T01:25:42.862Z,-1.74
2023-03-01T01:26:42.881Z,-1.76
2023-03-01T01:27:42.848Z,-1.76
2023-03-01T01:28:42.833Z,-1.72
2023-03-01T01:29:42.955Z,-1.77
2023-03-01T01:30:42.804Z,-1.77
2023-03-01T01:31:42.794Z,-1.77
2023-03-01T01:32:42.829Z,-1.76
2023-03-01T01:33:42.785Z,-1.76
2023-03-01T01:34:42.760Z,-1.77
2023-03-01T01:35:42.798Z,-1.76
2023-03-01T01:36:42.733Z,-1.79
2023-03-01T01:37:42.750Z,-1.76
2023-03-01T01:38:42.732Z,-1.76
2023-03-01T01:39:42.716Z,-1.74
2023-03-01T01:40:42.708Z,-1.72
2023-03-01T01:41:42.689Z,-1.74
2023-03-01T01:42:42.697Z,-1.74
2023-03-01T01:43:42.670Z,-1.72
2023-03-01T01:44:42.661Z,-1.72
2023-03-01T01:45:42.644Z,-1.72
2023-03-01T01:46:42.644Z,-1.72
2023-03-01T01:47:42.623Z,-1.72
2023-03-01T01:48:42.641Z,-1.72
2023-03-01T01:49:43.020Z,-1.76
2023-03-01T01:50:42.601Z,-1.74
2023-03-01T01:51:42.570Z,-1.72
2023-03-01T01:52:42.558Z,-1.72
2023-03-01T01:53:42.561Z,-1.76
2023-03-01T01:54:42.543Z,-1.74
2023-03-01T01:55:42.522Z,-1.76
2023-03-01T01:56:42.535Z,-1.76
2023-03-01T01:57:42.514Z,-1.74
2023-03-01T01:58:42.539Z,-1.77
2023-03-01T01:59:42.478Z,-1.77
2023-03-01T02:00:42.507Z,-1.79
2023-03-01T02:01:42.470Z,-1.79
2023-03-01T02:02:42.641Z,-1.79
2023-03-01T02:03:42.528Z,-1.80
2023-03-01T02:04:42.480Z,-1.80
2023-03-01T02:05:42.430Z,-1.83
2023-03-01T02:06:42.412Z,-1.84
2023-03-01T02:07:42.397Z,-1.86
2023-03-01T02:08:42.392Z,-1.86
2023-03-01T02:09:42.398Z,-1.89
2023-03-01T02:10:42.374Z,-1.87
2023-03-01T02:11:42.350Z,-1.89
2023-03-01T02:12:42.357Z,-1.89
2023-03-01T02:13:42.343Z,-1.90
2023-03-01T02:14:42.351Z,-1.90
2023-03-01T02:15:42.308Z,-1.92
2023-03-01T02:16:42.304Z,-1.94
2023-03-01T02:17:42.303Z,-1.95
2023-03-01T02:18:42.343Z,-1.94
2023-03-01T02:19:42.340Z,-1.95
2023-03-01T02:20:42.315Z,-1.98
2023-03-01T02:21:42.335Z,-1.98
2023-03-01T02:22:42.347Z,-1.98
2023-03-01T02:23:42.385Z,-2.00
2023-03-01T02:24:42.286Z,-2.01
2023-03-01T02:25:42.275Z,-2.04
2023-03-01T02:26:42.244Z,-2.02
2023-03-01T02:27:42.387Z,-2.05
2023-03-01T02:28:42.349Z,-2.07
2023-03-01T02:29:42.238Z,-2.08
2023-03-01T02:30:42.233Z,-2.12
2023-03-01T02:31:42.372Z,-2.13
2023-03-01T02:32:42.360Z,-2.15
2023-03-01T02:33:42.430Z,-2.18
2023-03-01T02:34:42.158Z,-2.19
2023-03-01T02:35:42.119Z,-2.19
2023-03-01T02:36:42.136Z,-2.19
2023-03-01T02:37:42.067Z,-2.22
2023-03-01T02:38:42.072Z,-2.25
2023-03-01T02:39:42.071Z,-2.23
2023-03-01T02:40:42.051Z,-2.23
2023-03-01T02:41:42.041Z,-2.23
2023-03-01T02:42:42.047Z,-2.23
2023-03-01T02:43:42.007Z,-2.25
2023-03-01T02:44:42.007Z,-2.23
2023-03-01T02:45:41.988Z,-2.25
2023-03-01T02:46:42.017Z,-2.25
2023-03-01T02:47:41.957Z,-2.25
2023-03-01T02:48:41.977Z,-2.25
2023-03-01T02:49:41.939Z,-2.25
2023-03-01T02:50:41.928Z,-2.28
2023-03-01T02:51:41.925Z,-2.28
2023-03-01T02:52:42.209Z,-2.30
2023-03-01T02:53:41.894Z,-2.30
2023-03-01T02:54:41.902Z,-2.30
2023-03-01T02:55:41.876Z,-2.30
2023-03-01T02:56:41.871Z,-2.30
2023-03-01T02:57:42.058Z,-2.32
2023-03-01T02:58:41.865Z,-2.32
2023-03-01T02:59:41.855Z,-2.34
2023-03-01T03:00:41.869Z,-2.34
2023-03-01T03:01:41.816Z,-2.35
2023-03-01T03:02:41.829Z,-2.35
2023-03-01T03:03:41.867Z,-2.37
2023-03-01T03:04:41.786Z,-2.37
2023-03-01T03:05:41.780Z,-2.38
2023-03-01T03:06:41.757Z,-2.38
2023-03-01T03:07:41.763Z,-2.38
2023-03-01T03:08:42.091Z,-2.38
2023-03-01T03:09:41.716Z,-2.38
2023-03-01T03:10:41.716Z,-2.38
2023-03-01T03:11:41.729Z,-2.40
2023-03-01T03:12:41.697Z,-2.40
2023-03-01T03:13:41.693Z,-2.41
2023-03-01T03:14:41.686Z,-2.42
2023-03-01T03:15:41.660Z,-2.42
2023-03-01T03:16:41.693Z,-2.44
2023-03-01T03:17:41.678Z,-2.45
2023-03-01T03:18:41.636Z,-2.45
2023-03-01T03:19:41.613Z,-2.47
2023-03-01T03:20:41.623Z,-2.50
2023-03-01T03:21:41.584Z,-2.48
2023-03-01T03:22:41.584Z,-2.52
2023-03-01T03:23:41.574Z,-2.48
2023-03-01T03:24:41.583Z,-2.52
2023-03-01T03:25:41.544Z,-2.50
2023-03-01T03:26:41.556Z,-2.50
2023-03-01T03:27:41.532Z,-2.52
2023-03-01T03:28:41.541Z,-2.52
2023-03-01T03:29:41.491Z,-2.53
2023-03-01T03:30:41.508Z,-2.55
2023-03-01T03:31:41.549Z,-2.55
2023-03-01T03:32:41.483Z,-2.56
2023-03-01T03:33:41.473Z,-2.56
2023-03-01T03:34:41.518Z,-2.56
2023-03-01T03:35:41.462Z,-2.58
2023-03-01T03:36:41.423Z,-2.59
2023-03-01T03:37:41.411Z,-2.58
2023-03-01T03:38:41.427Z,-2.59
2023-03-01T03:39:41.383Z,-2.59
2023-03-01T03:40:41.404Z,-2.62
2023-03-01T03:41:41.371Z,-2.60
2023-03-01T03:42:41.373Z,-2.62
2023-03-01T03:43:41.346Z,-2.63
2023-03-01T03:44:41.359Z,-2.63
2023-03-01T03:45:41.602Z,-2.66
2023-03-01T03:46:41.328Z,-2.69
2023-03-01T03:47:41.334Z,-2.69
2023-03-01T03:48:41.311Z,-2.70
2023-03-01T03:49:41.279Z,-2.69
2023-03-01T03:50:41.301Z,-2.73
2023-03-01T03:51:41.556Z,-2.74
2023-03-01T03:52:41.252Z,-2.74
2023-03-01T03:53:41.256Z,-2.74
2023-03-01T03:54:41.234Z,-2.73
2023-03-01T03:55:41.264Z,-2.73
2023-03-01T03:56:41.219Z,-2.76
2023-03-01T03:57:41.204Z,-2.76
2023-03-01T03:58:41.382Z,-2.76
2023-03-01T03:59:41.169Z,-2.76
2023-03-01T04:00:41.199Z,-2.76
2023-03-01T04:01:41.351Z,-2.76
2023-03-01T04:02:41.213Z,-2.77
2023-03-01T04:03:41.145Z,-2.77
2023-03-01T04:04:41.158Z,-2.77
2023-03-01T04:05:41.181Z,-2.74
2023-03-01T04:06:41.284Z,-2.77
2023-03-01T04:07:41.108Z,-2.77
2023-03-01T04:08:41.109Z,-2.78
2023-03-01T04:09:41.110Z,-2.76
2023-03-01T04:10:41.075Z,-2.77
2023-03-01T04:11:41.073Z,-2.77
2023-03-01T04:12:41.038Z,-2.77
2023-03-01T04:13:41.172Z,-2.78
2023-03-01T04:14:41.049Z,-2.78
2023-03-01T04:15:41.018Z,-2.77
2023-03-01T04:16:41.165Z,-2.78
2023-03-01T04:17:41.058Z,-2.77
2023-03-01T04:18:41.070Z,-2.78
2023-03-01T04:19:41.065Z,-2.78
2023-03-01T04:20:41.088Z,-2.77
2023-03-01T04:21:41.099Z,-2.77
2023-03-01T04:22:41.035Z,-2.77
2023-03-01T04:23:41.035Z,-2.77
2023-03-01T04:24:41.153Z,-2.77
2023-03-01T04:25:41.166Z,-2.74
2023-03-01T04:26:41.164Z,-2.76
2023-03-01T04:27:40.959Z,-2.77
2023-03-01T04:28:41.099Z,-2.77
2023-03-01T04:29:40.926Z,-2.76
2023-03-01T04:30:40.931Z,-2.77
2023-03-01T04:31:40.831Z,-2.78
2023-03-01T04:32:40.868Z,-2.80
2023-03-01T04:33:40.825Z,-2.80
2023-03-01T04:34:40.805Z,-2.81
2023-03-01T04:35:40.866Z,-2.81
2023-03-01T04:36:40.883Z,-2.83
2023-03-01T04:37:40.758Z,-2.84
2023-03-01T04:38:40.769Z,-2.83
2023-03-01T04:39:40.738Z,-2.83
2023-03-01T04:40:40.729Z,-2.83
2023-03-01T04:41:40.715Z,-2.84
2023-03-01T04:42:40.714Z,-2.81
2023-03-01T04:43:40.755Z,-2.84
2023-03-01T04:44:40.686Z,-2.84
2023-03-01T04:45:40.739Z,-2.84
2023-03-01T04:46:40.668Z,-2.84
2023-03-01T04:47:40.656Z,-2.84
2023-03-01T04:48:40.651Z,-2.83
2023-03-01T04:49:40.647Z,-2.84
2023-03-01T04:50:40.634Z,-2.84
2023-03-01T04:51:40.610Z,-2.86
2023-03-01T04:52:40.614Z,-2.89
2023-03-01T04:53:40.622Z,-2.91
2023-03-01T04:54:40.586Z,-2.89
2023-03-01T04:55:40.554Z,-2.91
2023-03-01T04:56:40.554Z,-2.92
2023-03-01T04:57:40.546Z,-2.92
2023-03-01T04:58:40.547Z,-2.92
2023-03-01T04:59:40.533Z,-2.92
2023-03-01T05:00:40.520Z,-2.92
2023-03-01T05:01:40.488Z,-2.91
2023-03-01T05:02:40.513Z,-2.92
2023-03-01T05:03:42.056Z,-2.92
2023-03-01T05:04:40.520Z,-2.94
2023-03-01T05:05:40.445Z,-2.94
2023-03-01T05:06:40.458Z,-2.94
2023-03-01T05:07:40.423Z,-2.94
2023-03-01T05:08:40.430Z,-2.94
2023-03-01T05:09:40.419Z,-2.94
2023-03-01T05:10:40.415Z,-2.94
2023-03-01T05:11:40.385Z,-2.94
2023-03-01T05:12:40.385Z,-2.92
2023-03-01T05:13:40.545Z,-2.95
2023-03-01T05:14:40.383Z,-2.95
2023-03-01T05:15:40.422Z,-2.92
2023-03-01T05:16:40.346Z,-2.94
2023-03-01T05:17:40.311Z,-2.92
2023-03-01T05:18:40.346Z,-2.95
2023-03-01T05:19:40.296Z,-2.94
2023-03-01T05:20:40.304Z,-2.94
2023-03-01T05:21:40.296Z,-2.95
2023-03-01T05:22:40.276Z,-2.97
2023-03-01T05:23:40.251Z,-2.95
2023-03-01T05:24:40.255Z,-2.95
2023-03-01T05:25:40.240Z,-2.97
2023-03-01T05:26:40.812Z,-2.97
2023-03-01T05:27:41.040Z,-2.98
2023-03-01T05:28:40.208Z,-2.97
2023-03-01T05:29:40.192Z,-2.99
2023-03-01T05:30:40.191Z,-2.98
2023-03-01T05:31:40.192Z,-3.01
2023-03-01T05:32:40.160Z,-2.99
2023-03-01T05:33:40.163Z,-2.99
2023-03-01T05:34:40.166Z,-3.01
2023-03-01T05:35:40.159Z,-3.02
2023-03-01T05:36:40.115Z,-3.02
2023-03-01T05:37:40.112Z,-3.01
2023-03-01T05:38:40.101Z,-2.99
2023-03-01T05:39:40.084Z,-3.01
2023-03-01T05:40:40.105Z,-3.02
2023-03-01T05:41:40.054Z,-3.02
2023-03-01T05:42:40.081Z,-3.04
2023-03-01T05:43:40.043Z,-3.02
2023-03-01T05:44:40.050Z,-3.02
2023-03-01T05:45:40.097Z,-3.02
2023-03-01T05:46:40.022Z,-3.04
2023-03-01T05:47:40.048Z,-3.02
2023-03-01T05:48:40.014Z,-3.04
2023-03-01T05:49:40.023Z,-3.04
2023-03-01T05:50:39.970Z,-3.04
2023-03-01T05:51:39.952Z,-3.09
2023-03-01T05:52:39.942Z,-3.07
2023-03-01T05:53:39.960Z,-3.09
2023-03-01T05:54:39.952Z,-3.07
2023-03-01T05:55:39.909Z,-3.07
2023-03-01T05:56:39.897Z,-3.09
2023-03-01T05:57:39.903Z,-3.09
2023-03-01T05:58:39.883Z,-3.07
2023-03-01T05:59:39.884Z,-3.09
2023-03-01T06:00:39.860Z,-3.06
2023-03-01T06:01:39.870Z,-3.09
2023-03-01T06:02:39.830Z,-3.07
2023-03-01T06:03:39.824Z,-3.07
2023-03-01T06:04:39.912Z,-3.07
2023-03-01T06:05:39.809Z,-3.09
2023-03-01T06:06:39.800Z,-3.09
2023-03-01T06:07:40.589Z,-3.10
2023-03-01T06:08:39.780Z,-3.12
2023-03-01T06:09:39.759Z,-3.10
2023-03-01T06:10:39.787Z,-3.12
2023-03-01T06:11:39.747Z,-3.12
2023-03-01T06:12:39.726Z,-3.12
2023-03-01T06:13:39.735Z,-3.13
2023-03-01T06:14:39.705Z,-3.13
2023-03-01T06:15:39.729Z,-3.13
2023-03-01T06:16:39.716Z,-3.13
2023-03-01T06:17:39.699Z,-3.13
2023-03-01T06:18:39.654Z,-3.12
2023-03-01T06:19:39.660Z,-3.13
2023-03-01T06:20:39.653Z,-3.13
2023-03-01T06:21:39.641Z,-3.13
2023-03-01T06:22:39.665Z,-3.13
2023-03-01T06:23:39.613Z,-3.13
2023-03-01T06:24:39.594Z,-3.13
2023-03-01T06:25:39.605Z,-3.15
2023-03-01T06:26:39.568Z,-3.15
2023-03-01T06:27:39.610Z,-3.13
2023-03-01T06:28:39.551Z,-3.15
2023-03-01T06:29:41.740Z,-3.13
2023-03-01T06:30:39.529Z,-3.13
2023-03-01T06:31:39.549Z,-3.13
2023-03-01T06:32:39.519Z,-3.12
2023-03-01T06:33:39.520Z,-3.13
2023-03-01T06:34:39.895Z,-3.10
2023-03-01T06:35:39.525Z,-3.10
2023-03-01T06:36:39.462Z,-3.10
2023-03-01T06:38:32.392Z,-3.09
2023-03-01T06:39:32.384Z,-3.09
2023-03-01T06:40:32.290Z,-3.09
2023-03-01T06:41:32.263Z,-3.09
2023-03-01T06:42:32.252Z,-3.09
2023-03-01T06:43:32.368Z,-3.10
2023-03-01T06:44:32.231Z,-3.09
2023-03-01T06:45:32.232Z,-3.09
2023-03-01T06:46:32.641Z,-3.07
2023-03-01T06:47:32.201Z,-3.09
2023-03-01T06:48:32.201Z,-3.07
2023-03-01T06:49:32.172Z,-3.07
2023-03-01T06:50:32.233Z,-3.06
2023-03-01T06:51:32.149Z,-3.07
2023-03-01T06:52:32.142Z,-3.07
2023-03-01T06:53:32.113Z,-3.07
2023-03-01T06:54:32.153Z,-3.09
2023-03-01T06:55:32.097Z,-3.09
2023-03-01T06:56:32.494Z,-3.07
2023-03-01T06:57:32.067Z,-3.04
2023-03-01T06:58:32.600Z,-3.06
2023-03-01T06:59:32.608Z,-3.02
2023-03-01T07:00:32.234Z,-3.02
2023-03-01T07:01:32.044Z,-3.01
2023-03-01T07:02:32.069Z,-2.98
2023-03-01T07:03:37.239Z,-2.98
2023-03-01T07:04:31.996Z,-2.97
2023-03-01T07:05:31.996Z,-2.94
2023-03-01T07:06:32.520Z,-2.92
2023-03-01T07:07:32.036Z,-2.92
2023-03-01T07:08:32.067Z,-2.91
2023-03-01T07:09:31.955Z,-2.88
2023-03-01T07:10:31.963Z,-2.88
2023-03-01T07:11:31.983Z,-2.84
2023-03-01T07:12:31.917Z,-2.83
2023-03-01T07:13:31.924Z,-2.81
2023-03-01T07:14:31.894Z,-2.80
2023-03-01T07:15:31.904Z,-2.78
2023-03-01T07:16:32.262Z,-2.77
2023-03-01T07:17:31.882Z,-2.76
2023-03-01T07:18:31.857Z,-2.73
2023-03-01T07:19:31.896Z,-2.71
2023-03-01T07:20:31.824Z,-2.66
2023-03-01T07:21:31.833Z,-2.65
2023-03-01T07:22:31.808Z,-2.62
2023-03-01T07:23:31.816Z,-2.60
2023-03-01T07:24:31.774Z,-2.59
2023-03-01T07:25:31.783Z,-2.58
2023-03-01T07:26:32.172Z,-2.55
2023-03-01T07:27:31.752Z,-2.52
2023-03-01T07:28:31.742Z,-2.47
2023-03-01T07:29:31.766Z,-2.45
2023-03-01T07:30:31.745Z,-2.42
2023-03-01T07:31:31.717Z,-2.40
2023-03-01T07:32:31.803Z,-2.37
2023-03-01T07:33:31.693Z,-2.35
2023-03-01T07:34:31.673Z,-2.32
2023-03-01T07:35:31.706Z,-2.30
2023-03-01T07:36:31.976Z,-2.28
2023-03-01T07:37:31.662Z,-2.25
2023-03-01T07:38:31.913Z,-2.22
2023-03-01T07:39:31.637Z,-2.19
2023-03-01T07:40:31.602Z,-2.16
2023-03-01T07:41:31.605Z,-2.15
2023-03-01T07:42:31.617Z,-2.12
2023-03-01T07:43:31.603Z,-2.12
2023-03-01T07:44:31.589Z,-2.05
2023-03-01T07:45:31.580Z,-2.04
2023-03-01T07:46:31.823Z,-2.02
2023-03-01T07:47:31.548Z,-2.00
2023-03-01T07:48:31.554Z,-1.98
2023-03-01T07:49:31.528Z,-1.95
2023-03-01T07:50:31.536Z,-1.90
2023-03-01T07:51:31.497Z,-1.89
2023-03-01T07:52:31.489Z,-1.86
2023-03-01T07:53:31.477Z,-1.82
2023-03-01T07:54:31.465Z,-1.80
2023-03-01T07:55:31.438Z,-1.77
2023-03-01T07:56:31.812Z,-1.77
2023-03-01T07:57:31.429Z,-1.72
2023-03-01T07:58:31.409Z,-1.69
2023-03-01T07:59:31.398Z,-1.68
2023-03-01T08:00:31.430Z,-1.64
2023-03-01T08:01:31.468Z,-1.59
2023-03-01T08:02:31.349Z,-1.54
2023-03-01T08:03:31.360Z,-1.50
2023-03-01T08:04:31.352Z,-1.46
2023-03-01T08:05:31.358Z,-1.41
2023-03-01T08:06:31.766Z,-1.38
2023-03-01T08:07:31.307Z,-1.35
2023-03-01T08:08:31.296Z,-1.30
2023-03-01T08:09:31.276Z,-1.27
2023-03-01T08:10:31.270Z,-1.26
2023-03-01T08:11:31.358Z,-1.22
2023-03-01T08:12:31.246Z,-1.19
2023-03-01T08:13:31.267Z,-1.15
2023-03-01T08:14:31.255Z,-1.12
2023-03-01T08:15:31.241Z,-1.08
2023-03-01T08:16:31.586Z,-1.05
2023-03-01T08:17:31.204Z,-1.01
2023-03-01T08:18:31.202Z,-0.96
2023-03-01T08:19:31.184Z,-0.90
2023-03-01T08:20:31.170Z,-0.89
2023-03-01T08:21:31.155Z,-0.83
2023-03-01T08:22:31.132Z,-0.78
2023-03-01T08:23:31.132Z,-0.74
2023-03-01T08:24:31.137Z,-0.65
2023-03-01T08:25:31.102Z,-0.59
2023-03-01T08:26:31.429Z,-0.53
2023-03-01T08:27:31.089Z,-0.49
2023-03-01T08:28:31.049Z,-0.43
2023-03-01T08:29:31.063Z,-0.36
2023-03-01T08:30:31.076Z,-0.32
2023-03-01T08:31:31.081Z,-0.26
2023-03-01T08:32:31.036Z,-0.20
2023-03-01T08:33:31.075Z,-0.14
2023-03-01T08:34:31.007Z,-0.07
2023-03-01T08:35:31.012Z,0.01
2023-03-01T08:36:31.460Z,0.08
2023-03-01T08:37:30.979Z,0.15
2023-03-01T08:38:30.951Z,0.22
2023-03-01T08:39:30.968Z,0.29
2023-03-01T08:40:30.925Z,0.36
2023-03-01T08:41:30.941Z,0.43
2023-03-01T08:42:30.976Z,0.49
2023-03-01T08:43:30.929Z,0.56
2023-03-01T08:44:30.886Z,0.74
2023-03-01T08:45:30.925Z,0.86
2023-03-01T08:46:31.308Z,0.96
2023-03-01T08:47:30.888Z,1.05
2023-03-01T08:48:30.848Z,1.14
2023-03-01T08:49:30.853Z,1.23
2023-03-01T08:50:30.824Z,1.30
2023-03-01T08:51:30.820Z,1.35
2023-03-01T08:52:30.820Z,1.52
2023-03-01T08:53:30.832Z,1.67
2023-03-01T08:54:30.780Z,1.87
2023-03-01T08:55:30.777Z,2.00
2023-03-01T08:56:30.993Z,2.20
2023-03-01T08:57:30.754Z,2.42
2023-03-01T08:58:30.740Z,2.54
2023-03-01T08:59:30.714Z,2.68
2023-03-01T09:00:30.711Z,2.80
2023-03-01T09:01:30.735Z,2.86
2023-03-01T09:02:30.730Z,2.93
2023-03-01T09:03:30.686Z,3.01
2023-03-01T09:04:30.671Z,3.10
2023-03-01T09:05:30.680Z,3.18
2023-03-01T09:06:30.946Z,3.31
2023-03-01T09:07:30.633Z,3.42
2023-03-01T09:08:30.707Z,3.48
2023-03-01T09:09:30.643Z,3.69
2023-03-01T09:10:30.609Z,3.80
2023-03-01T09:11:30.614Z,3.84
2023-03-01T09:12:30.585Z,3.91
2023-03-01T09:13:30.581Z,4.01
2023-03-01T09:14:30.584Z,4.01
2023-03-01T09:15:30.541Z,4.05
2023-03-01T09:16:31.032Z,3.99
2023-03-01T09:17:30.526Z,3.94
2023-03-01T09:18:30.658Z,3.94
2023-03-01T09:19:30.569Z,3.96
2023-03-01T09:20:30.502Z,3.88
2023-03-01T09:21:40.295Z,3.91
2023-03-01T09:22:31.480Z,3.83
2023-03-01T09:23:30.455Z,3.76
2023-03-01T09:24:30.466Z,3.77
2023-03-01T09:25:30.430Z,3.70
2023-03-01T09:26:30.902Z,3.74
2023-03-01T09:27:31.144Z,3.92
2023-03-01T09:28:30.525Z,4.02
2023-03-01T09:29:30.390Z,4.12
2023-03-01T09:30:30.416Z,4.23
2023-03-01T09:31:30.358Z,4.55
2023-03-01T09:32:30.435Z,4.71
2023-03-01T09:33:30.364Z,4.82
2023-03-01T09:34:30.351Z,4.87
2023-03-01T09:35:30.582Z,5.05
2023-03-01T09:36:30.646Z,5.11
2023-03-01T09:37:30.332Z,5.12
2023-03-01T09:38:30.323Z,5.25
2023-03-01T09:39:30.273Z,5.39
2023-03-01T09:40:30.262Z,5.47
2023-03-01T09:41:30.255Z,5.44
2023-03-01T09:42:30.262Z,5.32
2023-03-01T09:43:30.231Z,5.39
2023-03-01T09:44:30.231Z,5.47
2023-03-01T09:45:30.232Z,5.48
2023-03-01T09:46:30.679Z,5.53
2023-03-01T09:47:30.307Z,5.61
2023-03-01T09:48:30.179Z,5.73
2023-03-01T09:49:30.163Z,5.94
2023-03-01T09:50:30.163Z,6.05
2023-03-01T09:51:30.132Z,6.07
2023-03-01T09:52:30.153Z,6.02
2023-03-01T09:53:30.112Z,6.09
2023-03-01T09:54:30.143Z,6.24
2023-03-01T09:55:30.120Z,6.44
2023-03-01T09:56:30.370Z,6.46
2023-03-01T09:57:30.069Z,6.54
2023-03-01T09:58:30.075Z,6.70
2023-03-01T09:59:30.063Z,6.77
2023-03-01T10:00:30.049Z,6.74
2023-03-01T10:01:30.334Z,6.70
2023-03-01T10:02:30.037Z,6.77
2023-03-01T10:03:30.056Z,6.84
2023-03-01T10:04:30.217Z,6.84
2023-03-01T10:05:30.007Z,6.75
2023-03-01T10:06:35.422Z,6.79
2023-03-01T10:07:30.971Z,6.88
2023-03-01T10:08:29.963Z,6.93
2023-03-01T10:09:29.951Z,6.82
2023-03-01T10:10:29.931Z,6.77
2023-03-01T10:11:29.943Z,6.72
2023-03-01T10:12:29.903Z,6.79
2023-03-01T10:13:29.901Z,6.79
2023-03-01T10:14:29.917Z,6.92
2023-03-01T10:15:29.911Z,7.03
2023-03-01T10:16:29.894Z,7.07
2023-03-01T10:17:29.874Z,7.13
2023-03-01T10:18:29.848Z,7.18
2023-03-01T10:19:29.827Z,7.23
2023-03-01T10:20:29.825Z,7.23
2023-03-01T10:21:30.290Z,7.23
2023-03-01T10:22:29.819Z,7.24
2023-03-01T10:23:29.798Z,7.40
2023-03-01T10:24:29.788Z,7.50
2023-03-01T10:25:29.776Z,7.63
2023-03-01T10:26:30.035Z,7.61
2023-03-01T10:27:29.742Z,7.57
2023-03-01T10:28:29.767Z,7.58
2023-03-01T10:29:29.714Z,7.54
2023-03-01T10:30:29.713Z,7.63
2023-03-01T10:31:30.183Z,7.70
2023-03-01T10:32:29.751Z,7.80
2023-03-01T10:33:29.662Z,7.98
2023-03-01T10:34:29.681Z,8.05
2023-03-01T10:35:29.657Z,8.08
2023-03-01T10:36:29.896Z,8.06
2023-03-01T10:37:29.646Z,7.87
2023-03-01T10:38:29.614Z,7.85
2023-03-01T10:39:29.610Z,7.80
2023-03-01T10:40:29.624Z,7.76
2023-03-01T10:41:30.007Z,7.73
2023-03-01T10:46:13.709Z,7.48
2023-03-01T10:47:02.013Z,7.35
2023-03-01T10:48:02.024Z,7.25
2023-03-01T10:49:02.007Z,7.23
2023-03-01T10:50:02.014Z,7.29
2023-03-01T10:51:01.968Z,7.14
2023-03-01T10:52:02.001Z,7.07
2023-03-01T10:53:01.987Z,7.15
2023-03-01T10:54:01.965Z,7.17
2023-03-01T10:55:01.934Z,7.24
2023-03-01T10:56:01.953Z,7.29
2023-03-01T10:57:01.918Z,7.36
2023-03-01T10:58:01.932Z,7.60
2023-03-01T10:59:01.936Z,7.76
2023-03-01T11:00:01.898Z,7.80
2023-03-01T11:01:01.883Z,7.82
2023-03-01T11:02:05.119Z,7.70
2023-03-01T11:03:02.855Z,7.70
2023-03-01T11:04:01.941Z,7.72
2023-03-01T11:05:01.988Z,7.63
2023-03-01T11:06:01.962Z,7.56
2023-03-01T11:07:01.878Z,7.40
2023-03-01T11:08:02.087Z,7.35
2023-03-01T11:09:01.915Z,7.40
2023-03-01T11:10:01.890Z,7.47
2023-03-01T11:11:01.988Z,7.42
2023-03-01T11:12:01.972Z,7.42
2023-03-01T11:13:01.894Z,7.42
2023-03-01T11:14:01.909Z,7.33
2023-03-01T11:15:01.853Z,7.31
2023-03-01T11:16:01.818Z,7.23
2023-03-01T11:17:01.727Z,7.15
2023-03-01T11:18:12.979Z,7.13
2023-03-01T11:19:02.718Z,7.13
2023-03-01T11:20:02.975Z,7.15
2023-03-01T11:21:01.645Z,7.20
2023-03-01T11:22:01.696Z,7.21
2023-03-01T11:23:01.628Z,7.24
2023-03-01T11:24:01.622Z,7.39
2023-03-01T11:25:09.985Z,7.33
2023-03-01T11:26:02.617Z,7.43
2023-03-01T11:27:01.587Z,7.47
2023-03-01T11:28:01.576Z,7.42
2023-03-01T11:29:01.555Z,7.38
2023-03-01T11:30:01.578Z,7.36
2023-03-01T11:31:08.600Z,7.45
2023-03-01T11:32:02.621Z,7.51
2023-03-01T11:33:01.740Z,7.75
2023-03-01T11:34:01.520Z,7.85
2023-03-01T11:35:01.505Z,7.87
2023-03-01T11:36:01.513Z,7.91
2023-03-01T11:37:01.466Z,7.83
2023-03-01T11:38:01.466Z,7.75
2023-03-01T11:39:01.439Z,7.76
2023-03-01T11:40:01.440Z,7.88
2023-03-01T11:41:01.455Z,7.87
2023-03-01T11:42:09.302Z,7.88
2023-03-01T11:43:02.477Z,7.94
2023-03-01T11:44:01.383Z,8.06
2023-03-01T11:45:01.369Z,8.09
2023-03-01T11:46:01.364Z,8.09
2023-03-01T11:47:01.505Z,8.09
2023-03-01T11:48:01.358Z,7.93
2023-03-01T11:49:01.357Z,7.87
2023-03-01T11:50:01.325Z,7.82
2023-03-01T11:51:01.524Z,7.80
2023-03-01T11:52:01.303Z,7.79
2023-03-01T11:53:01.341Z,7.73
2023-03-01T11:54:01.294Z,7.82
2023-03-01T11:55:01.308Z,7.93
2023-03-01T11:56:01.294Z,7.94
2023-03-01T11:57:01.246Z,7.94
2023-03-01T11:58:01.225Z,7.97
2023-03-01T11:59:01.214Z,7.83
2023-03-01T12:00:01.219Z,7.69
2023-03-01T12:01:01.213Z,7.61
2023-03-01T12:02:01.216Z,7.75
2023-03-01T12:03:01.175Z,7.85
2023-03-01T12:04:01.211Z,7.95
2023-03-01T12:05:01.153Z,7.95
2023-03-01T12:06:01.173Z,8.03
2023-03-01T12:07:01.137Z,8.06
2023-03-01T12:08:01.125Z,7.98
2023-03-01T12:09:01.119Z,8.05
2023-03-01T12:10:01.106Z,8.01
2023-03-01T12:11:01.317Z,8.10
2023-03-01T12:12:01.202Z,8.13
2023-03-01T12:13:01.066Z,8.19
2023-03-01T12:14:01.066Z,8.20
2023-03-01T12:15:01.071Z,8.20
2023-03-01T12:16:01.103Z,8.26
2023-03-01T12:17:01.161Z,8.31
2023-03-01T12:18:01.027Z,8.33
2023-03-01T12:19:01.002Z,8.36
2023-03-01T12:20:01.687Z,8.34
2023-03-01T12:21:00.974Z,8.33
2023-03-01T12:22:00.964Z,8.30
2023-03-01T12:23:11.433Z,8.46
2023-03-01T12:24:01.967Z,8.45
2023-03-01T12:25:00.929Z,8.45
2023-03-01T12:26:00.927Z,8.52
2023-03-01T12:27:00.919Z,8.61
2023-03-01T12:28:00.903Z,8.63
2023-03-01T12:29:00.900Z,8.61
2023-03-01T12:30:01.116Z,8.49
2023-03-01T12:31:00.883Z,8.34
2023-03-01T12:32:00.963Z,8.41
2023-03-01T12:33:00.925Z,8.45
2023-03-01T12:34:00.835Z,8.52
2023-03-01T12:35:00.853Z,8.61
2023-03-01T12:36:00.878Z,8.70
2023-03-01T12:37:00.796Z,8.74
2023-03-01T12:38:00.802Z,8.79
2023-03-01T12:39:00.776Z,8.94
2023-03-01T12:40:00.888Z,9.04
2023-03-01T12:41:00.762Z,9.04
2023-03-01T12:42:00.731Z,9.10
2023-03-01T12:43:00.730Z,9.08
2023-03-01T12:44:00.734Z,9.04
2023-03-01T12:45:00.732Z,9.02
2023-03-01T12:46:00.715Z,8.99
2023-03-01T12:47:00.688Z,8.99
2023-03-01T12:48:00.700Z,8.87
2023-03-01T12:49:00.678Z,8.74
2023-03-01T12:50:00.664Z,8.70
2023-03-01T12:51:00.654Z,8.60
2023-03-01T12:52:00.630Z,8.49
2023-03-01T12:53:00.648Z,8.53
2023-03-01T12:54:00.596Z,8.60
2023-03-01T12:55:00.610Z,8.69
2023-03-01T12:56:00.601Z,8.78
2023-03-01T12:57:00.573Z,8.87
2023-03-01T12:58:00.550Z,8.91
2023-03-01T12:59:00.577Z,8.87
2023-03-01T13:00:00.532Z,8.82
2023-03-01T13:01:00.553Z,8.78
2023-03-01T13:02:00.516Z,8.81
2023-03-01T13:03:00.512Z,8.79
2023-03-01T13:04:00.511Z,8.81
2023-03-01T13:05:00.500Z,8.89
2023-03-01T13:06:00.467Z,8.94